createdAt,value
2022-11-16T00:00:34.176Z,15.87
2022-11-16T00:03:36.010Z,15.93
2022-11-16T00:06:38.024Z,13.77
2022-11-16T00:09:41.675Z,13.97
2022-11-16T00:12:43.400Z,14.03
2022-11-16T00:15:54.769Z,13.50
2022-11-16T00:18:58.812Z,15.00
2022-11-16T00:22:00.504Z,11.50
2022-11-16T00:25:02.098Z,12.57
2022-11-16T00:28:03.847Z,13.83
2022-11-16T00:31:07.284Z,13.37
2022-11-16T00:34:08.954Z,14.37
2022-11-16T00:37:10.551Z,13.80
2022-11-16T00:40:12.526Z,15.50
2022-11-16T00:43:14.160Z,13.93
2022-11-16T00:46:16.060Z,14.27
2022-11-16T00:49:17.692Z,13.27
2022-11-16T00:52:19.293Z,11.10
2022-11-16T00:55:20.963Z,14.80
2022-11-16T00:58:22.568Z,13.83
2022-11-16T01:01:24.240Z,11.90
2022-11-16T01:04:25.945Z,11.10
2022-11-16T01:07:27.633Z,9.40
2022-11-16T01:10:29.373Z,10.63
2022-11-16T01:13:30.985Z,8.63
2022-11-16T01:16:32.885Z,10.93
2022-11-16T01:19:34.720Z,8.70
2022-11-16T01:22:37.485Z,11.10
2022-11-16T01:25:39.217Z,9.63
2022-11-16T01:28:40.965Z,11.20
2022-11-16T01:31:42.606Z,10.47
2022-11-16T01:34:44.193Z,9.70
2022-11-16T01:37:45.855Z,7.43
2022-11-16T01:40:47.564Z,9.60
2022-11-16T01:44:01.865Z,9.60
2022-11-16T01:47:08.369Z,9.50
2022-11-16T01:50:13.747Z,9.07
2022-11-16T01:53:16.189Z,9.07
2022-11-16T01:56:18.045Z,13.53
2022-11-16T01:59:19.886Z,9.73
2022-11-16T02:02:21.516Z,9.37
2022-11-16T02:05:37.682Z,8.80
2022-11-16T02:09:32.089Z,8.20
2022-11-16T02:13:02.443Z,9.53
2022-11-16T02:16:04.080Z,9.40
2022-11-16T02:19:31.591Z,10.53
2022-11-16T02:23:25.726Z,9.13
2022-11-16T02:27:05.527Z,9.60
2022-11-16T02:30:07.780Z,9.50
2022-11-16T02:33:13.300Z,9.80
2022-11-16T02:36:20.408Z,9.27
2022-11-16T02:39:27.126Z,12.63
2022-11-16T02:42:43.872Z,11.43
2022-11-16T02:45:49.721Z,11.87
2022-11-16T02:48:55.669Z,13.00
2022-11-16T02:51:59.026Z,14.17
2022-11-16T02:55:00.716Z,15.33
2022-11-16T02:58:06.349Z,15.40
2022-11-16T03:01:18.053Z,19.77
2022-11-16T03:04:34.086Z,19.53
2022-11-16T03:07:43.992Z,17.57
2022-11-16T03:11:13.994Z,20.97
2022-11-16T03:14:19.315Z,22.80
2022-11-16T03:17:30.096Z,20.87
2022-11-16T03:20:33.928Z,19.93
2022-11-16T03:23:35.917Z,20.90
2022-11-16T03:26:49.486Z,23.23
2022-11-16T03:29:59.620Z,21.77
2022-11-16T03:33:15.854Z,26.87
2022-11-16T03:36:33.481Z,24.93
2022-11-16T03:39:38.848Z,22.50
2022-11-16T03:42:42.032Z,23.53
2022-11-16T03:45:44.734Z,24.80
2022-11-16T03:48:46.707Z,28.83
2022-11-16T03:51:49.512Z,24.70
2022-11-16T03:54:51.153Z,30.03
2022-11-16T03:57:52.934Z,25.63
2022-11-16T04:00:54.687Z,23.80
2022-11-16T04:03:56.400Z,25.20
2022-11-16T04:07:16.815Z,26.30
2022-11-16T04:10:37.117Z,26.70
2022-11-16T04:13:57.430Z,28.30
2022-11-16T04:17:17.927Z,26.93
2022-11-16T04:20:38.121Z,24.67
2022-11-16T04:23:58.730Z,29.43
2022-11-16T04:27:24.372Z,22.77
2022-11-16T04:30:46.303Z,21.23
2022-11-16T04:34:09.189Z,19.40
2022-11-16T04:37:35.259Z,18.13
2022-11-16T04:40:36.960Z,18.90
2022-11-16T04:43:38.551Z,18.53
2022-11-16T04:46:59.148Z,17.10
2022-11-16T04:50:00.752Z,17.97
2022-11-16T04:53:03.968Z,19.50
2022-11-16T04:56:05.757Z,18.03
2022-11-16T04:59:07.428Z,21.57
2022-11-16T05:02:09.244Z,21.40
2022-11-16T05:05:11.171Z,20.80
2022-11-16T05:08:12.866Z,20.90
2022-11-16T05:11:14.510Z,22.33
2022-11-16T05:14:16.159Z,23.67
2022-11-16T05:17:18.583Z,23.13
2022-11-16T05:20:39.099Z,23.43
2022-11-16T05:23:59.489Z,23.27
2022-11-16T05:27:06.289Z,19.07
2022-11-16T05:30:08.974Z,25.10
2022-11-16T05:33:10.694Z,24.83
2022-11-16T05:36:12.393Z,27.67
2022-11-16T05:39:14.222Z,21.23
2022-11-16T05:42:16.250Z,26.23
2022-11-16T05:45:20.967Z,23.77
2022-11-16T05:48:23.003Z,25.13
2022-11-16T05:51:24.771Z,26.80
2022-11-16T05:54:26.497Z,23.07
2022-11-16T05:57:28.139Z,27.53
2022-11-16T06:00:29.760Z,29.47
2022-11-16T06:03:32.273Z,29.73
2022-11-16T06:06:34.295Z,27.30
2022-11-16T06:09:35.966Z,25.80
2022-11-16T06:12:37.630Z,29.43
2022-11-16T06:15:39.843Z,30.73
2022-11-16T06:18:43.600Z,31.47
2022-11-16T06:21:45.316Z,29.43
2022-11-16T06:24:46.978Z,31.63
2022-11-16T06:27:48.584Z,29.20
2022-11-16T06:30:50.479Z,26.97
2022-11-16T06:33:52.105Z,27.63
2022-11-16T06:36:53.801Z,29.60
2022-11-16T06:39:55.547Z,31.57
2022-11-16T06:42:57.261Z,30.97
2022-11-16T06:46:01.857Z,28.17
2022-11-16T06:49:03.736Z,31.80
2022-11-16T06:52:05.523Z,29.57
2022-11-16T06:55:07.746Z,24.37
2022-11-16T06:58:09.414Z,20.30
2022-11-16T07:01:12.256Z,19.70
2022-11-16T07:04:14.067Z,17.70
2022-11-16T07:07:16.485Z,21.43
2022-11-16T07:10:18.280Z,24.90
2022-11-16T07:13:19.892Z,28.97
2022-11-16T07:16:22.008Z,31.20
2022-11-16T07:19:23.692Z,33.40
2022-11-16T07:22:25.508Z,35.30
2022-11-16T07:25:27.332Z,35.77
2022-11-16T07:28:29.812Z,40.13
2022-11-16T07:31:31.748Z,30.20
2022-11-16T07:34:33.387Z,31.53
2022-11-16T07:37:34.994Z,30.63
2022-11-16T07:40:37.035Z,25.20
2022-11-16T07:43:39.814Z,23.40
2022-11-16T07:46:47.456Z,22.30
2022-11-16T07:49:49.929Z,20.37
2022-11-16T07:52:51.535Z,22.03
2022-11-16T07:55:54.340Z,18.47
2022-11-16T07:58:56.727Z,17.23
2022-11-16T08:01:59.277Z,20.63
2022-11-16T08:05:01.089Z,17.43
2022-11-16T08:08:02.743Z,18.70
2022-11-16T08:11:07.067Z,20.13
2022-11-16T08:14:08.662Z,17.37
2022-11-16T08:17:10.313Z,15.53
2022-11-16T08:20:12.367Z,17.00
2022-11-16T08:23:13.942Z,17.60
2022-11-16T08:26:18.216Z,14.40
2022-11-16T08:29:19.921Z,19.80
2022-11-16T08:32:21.565Z,17.10
2022-11-16T08:35:23.373Z,16.90
2022-11-16T08:38:24.963Z,15.40
2022-11-16T08:41:26.685Z,21.93
2022-11-16T08:44:28.259Z,14.47
2022-11-16T08:47:31.341Z,13.17
2022-11-16T08:50:44.225Z,13.70
2022-11-16T08:53:58.853Z,16.50
2022-11-16T08:57:00.524Z,12.63
2022-11-16T09:00:03.051Z,8.57
2022-11-16T09:03:04.698Z,9.17
2022-11-16T09:06:07.284Z,8.00
2022-11-16T09:09:08.907Z,7.30
2022-11-16T09:12:10.539Z,7.90
2022-11-16T09:15:12.106Z,5.83
2022-11-16T09:18:14.046Z,6.00
2022-11-16T09:21:20.675Z,7.63
2022-11-16T09:24:22.270Z,7.70
2022-11-16T09:27:24.132Z,3.97
2022-11-16T09:30:25.729Z,4.53
2022-11-16T09:33:29.881Z,5.13
2022-11-16T09:36:32.023Z,3.47
2022-11-16T09:39:34.371Z,8.70
2022-11-16T09:43:23.467Z,5.80
2022-11-16T09:46:41.619Z,5.40
2022-11-16T09:49:51.028Z,7.00
2022-11-16T09:52:55.394Z,7.77
2022-11-16T09:56:04.040Z,8.47
2022-11-16T09:59:16.693Z,7.60
2022-11-16T10:02:28.289Z,5.17
2022-11-16T10:05:38.740Z,8.43
2022-11-16T10:08:44.635Z,4.20
2022-11-16T10:11:56.422Z,6.87
2022-11-16T10:15:04.795Z,6.50
2022-11-16T10:18:24.728Z,3.40
2022-11-16T10:21:52.409Z,5.40
2022-11-16T10:24:57.902Z,6.60
2022-11-16T10:28:02.688Z,5.97
2022-11-16T10:31:23.614Z,9.03
2022-11-16T10:34:28.204Z,9.13
2022-11-16T10:37:32.817Z,6.10
2022-11-16T10:40:38.492Z,4.47
2022-11-16T10:43:42.071Z,6.30
2022-11-16T10:46:50.122Z,9.30
2022-11-16T10:50:09.221Z,5.57
2022-11-16T10:53:34.324Z,5.87
2022-11-16T10:56:39.478Z,7.90
2022-11-16T10:59:52.313Z,6.40
2022-11-16T11:02:53.901Z,8.10
2022-11-16T11:05:55.692Z,9.73
2022-11-16T11:09:25.275Z,8.70
2022-11-16T11:12:39.593Z,4.47
2022-11-16T11:15:42.540Z,7.97
2022-11-16T11:18:44.326Z,5.40
2022-11-16T11:21:47.429Z,5.67
2022-11-16T11:24:49.564Z,5.83
2022-11-16T11:28:03.659Z,5.63
2022-11-16T11:31:25.995Z,7.53
2022-11-16T11:34:32.038Z,4.77
2022-11-16T11:37:37.176Z,4.83
2022-11-16T11:40:39.200Z,2.40
2022-11-16T11:43:41.974Z,4.30
2022-11-16T11:50:53.545Z,5.40
2022-11-16T11:54:00.826Z,4.47
2022-11-16T11:57:03.734Z,4.10
2022-11-16T12:00:09.169Z,4.93
2022-11-16T12:03:49.755Z,7.30
2022-11-16T12:07:19.264Z,8.93
2022-11-16T12:10:46.461Z,8.57
2022-11-16T12:13:53.906Z,4.40
2022-11-16T12:17:01.619Z,6.33
2022-11-16T12:20:28.271Z,5.20
2022-11-16T12:23:56.377Z,2.90
2022-11-16T12:27:19.471Z,5.97
2022-11-16T12:30:24.814Z,9.30
2022-11-16T12:33:58.149Z,7.27
2022-11-16T12:37:31.623Z,5.00
2022-11-16T12:40:45.170Z,3.97
2022-11-16T12:44:04.845Z,9.83
2022-11-16T12:47:41.854Z,8.17
2022-11-16T12:50:52.612Z,5.97
2022-11-16T12:54:09.622Z,8.30
2022-11-16T12:57:43.325Z,6.17
2022-11-16T13:01:17.749Z,7.70
2022-11-16T13:04:25.815Z,11.10
2022-11-16T13:07:46.259Z,6.70
2022-11-16T13:10:53.893Z,6.43
2022-11-16T13:14:03.693Z,5.97
2022-11-16T13:17:07.386Z,5.23
2022-11-16T13:20:39.450Z,6.10
2022-11-16T13:23:49.275Z,8.80
2022-11-16T13:27:04.522Z,7.27
2022-11-16T13:30:15.480Z,4.00
2022-11-16T13:33:26.371Z,3.33
2022-11-16T13:36:39.240Z,4.43
2022-11-16T13:40:00.758Z,6.57
2022-11-16T13:43:08.029Z,4.60
2022-11-16T13:46:22.367Z,7.13
2022-11-16T13:49:38.919Z,7.73
2022-11-16T13:53:36.524Z,7.80
2022-11-16T13:56:09.288Z,4.00
2022-11-16T13:59:16.169Z,4.20
2022-11-16T14:02:33.773Z,7.83
2022-11-16T14:05:41.577Z,7.07
2022-11-16T14:08:43.139Z,6.47
2022-11-16T14:11:44.729Z,5.43
2022-11-16T14:15:28.893Z,9.60
2022-11-16T14:18:34.273Z,7.50
2022-11-16T14:21:48.839Z,6.60
2022-11-16T14:25:00.091Z,7.40
2022-11-16T14:28:28.437Z,6.63
2022-11-16T14:31:48.394Z,5.23
2022-11-16T14:34:53.022Z,7.60
2022-11-16T14:38:10.380Z,6.13
2022-11-16T14:41:25.219Z,8.23
2022-11-16T14:44:32.253Z,11.33
2022-11-16T14:47:59.411Z,12.70
2022-11-16T14:51:12.559Z,8.00
2022-11-16T14:54:32.287Z,6.10
2022-11-16T14:57:39.791Z,8.83
2022-11-16T15:00:41.474Z,10.43
2022-11-16T15:03:57.466Z,9.83
2022-11-16T15:07:05.033Z,10.57
2022-11-16T15:10:18.885Z,10.70
2022-11-16T15:13:23.733Z,15.43
2022-11-16T15:16:25.515Z,7.10
2022-11-16T15:19:31.826Z,6.20
2022-11-16T15:22:41.048Z,10.90
2022-11-16T15:25:52.558Z,5.00
2022-11-16T15:28:55.474Z,8.30
2022-11-16T15:31:57.451Z,9.43
2022-11-16T15:35:05.001Z,13.80
2022-11-16T15:38:18.477Z,8.90
2022-11-16T15:41:22.173Z,9.70
2022-11-16T15:44:24.819Z,11.13
2022-11-16T15:47:30.090Z,11.00
2022-11-16T15:50:32.199Z,6.73
2022-11-16T15:53:42.748Z,8.17
2022-11-16T15:56:44.910Z,11.10
2022-11-16T15:59:49.730Z,7.80
2022-11-16T16:02:51.821Z,7.27
2022-11-16T16:05:54.800Z,10.17
2022-11-16T16:09:06.607Z,7.43
2022-11-16T16:12:32.332Z,9.10
2022-11-16T16:15:36.725Z,6.83
2022-11-16T16:18:43.899Z,11.40
2022-11-16T16:21:46.877Z,7.30
2022-11-16T16:24:51.501Z,6.27
2022-11-16T16:27:53.405Z,10.00
2022-11-16T16:30:55.195Z,14.23
2022-11-16T16:37:44.431Z,13.17
2022-11-16T16:40:46.315Z,13.13
2022-11-16T16:43:51.389Z,14.17
2022-11-16T16:47:06.771Z,12.23
2022-11-16T16:50:12.905Z,15.80
2022-11-16T16:53:15.577Z,15.50
2022-11-16T16:57:13.333Z,15.10
2022-11-16T17:08:42.420Z,15.40
2022-11-16T17:11:44.564Z,12.63
2022-11-16T17:14:57.548Z,10.53
2022-11-16T17:17:59.836Z,9.90
2022-11-16T17:21:48.463Z,20.23
2022-11-16T17:25:02.851Z,9.47
2022-11-16T17:28:14.040Z,10.70
2022-11-16T17:31:44.190Z,8.23
2022-11-16T17:34:48.647Z,10.60
2022-11-16T17:37:50.535Z,8.70
2022-11-16T17:41:05.528Z,11.93
2022-11-16T17:44:07.960Z,14.20
2022-11-16T17:50:49.279Z,15.07
2022-11-16T17:53:51.579Z,10.10
2022-11-16T17:56:53.620Z,9.10
2022-11-16T17:59:55.381Z,8.97
2022-11-16T18:02:57.133Z,15.63
2022-11-16T18:06:08.468Z,9.37
2022-11-16T18:09:10.328Z,9.80
2022-11-16T18:12:14.993Z,9.83
2022-11-16T18:15:28.537Z,9.40
2022-11-16T18:18:37.903Z,10.50
2022-11-16T18:21:40.770Z,8.83
2022-11-16T18:24:53.002Z,7.80
2022-11-16T18:27:55.785Z,8.30
2022-11-16T18:31:05.578Z,11.80
2022-11-16T18:34:07.517Z,7.43
2022-11-16T18:37:09.449Z,8.73
2022-11-16T18:40:12.166Z,11.70
2022-11-16T18:43:14.211Z,10.00
2022-11-16T18:46:17.286Z,11.70
2022-11-16T18:49:22.085Z,11.13
2022-11-16T18:52:31.672Z,13.97
2022-11-16T18:55:33.459Z,9.83
2022-11-16T18:58:49.885Z,19.03
2022-11-16T19:01:55.959Z,12.70
2022-11-16T19:04:58.229Z,13.70
2022-11-16T19:08:00.399Z,18.97
2022-11-16T19:11:11.550Z,11.50
2022-11-16T19:14:15.980Z,17.57
2022-11-16T19:17:20.302Z,10.87
2022-11-16T19:20:22.064Z,8.37
2022-11-16T19:23:23.974Z,9.67
2022-11-16T19:26:29.996Z,8.10
2022-11-16T19:29:31.667Z,6.07
2022-11-16T19:32:36.941Z,11.77
2022-11-16T19:35:47.836Z,10.53
2022-11-16T19:38:49.900Z,20.83
2022-11-16T19:41:51.711Z,14.23
2022-11-16T19:44:55.858Z,15.33
2022-11-16T19:47:58.913Z,12.93
2022-11-16T19:51:05.920Z,12.27
2022-11-16T19:54:09.222Z,9.73
2022-11-16T19:57:15.606Z,11.10
2022-11-16T20:00:17.721Z,9.80
2022-11-16T20:03:19.580Z,9.10
2022-11-16T20:06:24.124Z,8.33
2022-11-16T20:09:31.217Z,10.27
2022-11-16T20:12:32.881Z,8.70
2022-11-16T20:15:34.683Z,10.13
2022-11-16T20:18:37.548Z,11.80
2022-11-16T20:21:43.994Z,9.30
2022-11-16T20:24:45.965Z,9.20
2022-11-16T20:27:50.218Z,10.37
2022-11-16T20:30:59.522Z,11.97
2022-11-16T20:34:05.744Z,11.33
2022-11-16T20:37:10.639Z,9.23
2022-11-16T20:40:12.911Z,14.00
2022-11-16T20:43:14.859Z,14.70
2022-11-16T20:46:17.932Z,9.73
2022-11-16T20:49:19.925Z,7.57
2022-11-16T20:52:28.107Z,9.60
2022-11-16T20:55:31.945Z,5.80
2022-11-16T20:58:37.778Z,10.13
2022-11-16T21:01:41.465Z,10.30
2022-11-16T21:04:43.475Z,9.23
2022-11-16T21:07:45.619Z,9.90
2022-11-16T21:10:48.598Z,7.40
2022-11-16T21:14:08.891Z,10.97
2022-11-16T21:17:10.862Z,10.07
2022-11-16T21:20:26.343Z,12.60
2022-11-16T21:23:34.552Z,12.70
2022-11-16T21:26:37.259Z,15.67
2022-11-16T21:29:39.500Z,15.90
2022-11-16T21:32:41.262Z,15.30
2022-11-16T21:35:46.025Z,15.67
2022-11-16T21:38:53.819Z,19.57
2022-11-16T21:42:03.157Z,13.53
2022-11-16T21:45:08.483Z,43.77
2022-11-16T21:48:27.500Z,33.87
2022-11-16T21:51:30.765Z,19.30
2022-11-16T21:54:48.154Z,15.70
2022-11-16T21:57:50.168Z,12.67
2022-11-16T22:01:02.271Z,17.03
2022-11-16T22:08:08.645Z,16.20
2022-11-16T22:11:13.587Z,16.27
2022-11-16T22:14:21.187Z,11.10
2022-11-16T22:17:28.711Z,12.50
2022-11-16T22:20:31.491Z,9.50
2022-11-16T22:23:34.664Z,16.23
2022-11-16T22:26:38.123Z,9.60
2022-11-16T22:29:39.942Z,8.77
2022-11-16T22:32:41.990Z,7.50
2022-11-16T22:35:46.482Z,10.90
2022-11-16T22:38:51.054Z,13.97
2022-11-16T22:41:55.503Z,10.70
2022-11-16T22:44:57.547Z,7.50
2022-11-16T22:47:59.574Z,12.03
2022-11-16T22:51:22.468Z,7.63
2022-11-16T22:54:28.481Z,10.50
2022-11-16T22:57:30.606Z,7.53
2022-11-16T23:00:40.644Z,13.77
2022-11-16T23:03:46.483Z,6.30
2022-11-16T23:06:49.287Z,6.63
2022-11-16T23:09:51.241Z,7.43
2022-11-16T23:13:12.481Z,11.50
2022-11-16T23:16:14.474Z,7.10
2022-11-16T23:19:37.830Z,5.77
2022-11-16T23:22:58.498Z,6.73
2022-11-16T23:29:39.332Z,7.50
2022-11-16T23:32:41.727Z,6.70
2022-11-16T23:35:43.562Z,6.10
2022-11-16T23:38:45.323Z,7.83
2022-11-16T23:42:05.775Z,8.57
2022-11-16T23:45:08.238Z,5.77
2022-11-16T23:48:11.677Z,15.93
2022-11-16T23:51:13.648Z,9.40
2022-11-16T23:54:15.610Z,8.47
2022-11-16T23:57:20.677Z,7.87
